createdAt,value
2019-03-30T15:49:33.858Z,3.77
2019-03-30T15:52:13.433Z,3.03
2019-03-30T15:54:28.736Z,4.80
2019-03-30T15:56:55.354Z,6.03
2019-03-30T15:59:22.071Z,3.70
2019-03-30T16:01:48.632Z,5.23
2019-03-30T16:04:15.132Z,5.30
2019-03-30T16:06:41.697Z,3.77
2019-03-30T16:09:08.299Z,4.23
2019-03-30T16:11:34.850Z,3.60
2019-03-30T16:14:01.433Z,4.20
2019-03-30T16:16:28.074Z,3.97
2019-03-30T16:18:54.633Z,4.33
2019-03-30T16:21:21.292Z,5.53
2019-03-30T16:23:47.847Z,3.80
2019-03-30T16:26:14.507Z,3.77
2019-03-30T16:28:41.069Z,3.60
2019-03-30T16:31:07.573Z,13.63
2019-03-30T16:33:34.290Z,3.97
2019-03-30T16:36:02.713Z,3.30
2019-03-30T16:38:29.152Z,6.87
2019-03-30T16:40:55.695Z,5.40
2019-03-30T16:43:22.471Z,6.60
2019-03-30T16:45:48.971Z,6.27
2019-03-30T16:48:15.897Z,6.00
2019-03-30T16:50:42.652Z,6.90
2019-03-30T16:53:09.506Z,6.97
2019-03-30T16:55:37.401Z,4.73
2019-03-30T16:58:04.023Z,6.00
2019-03-30T17:00:30.619Z,6.95
2019-03-30T17:02:57.274Z,5.65
2019-03-30T17:05:23.943Z,6.75
2019-03-30T17:07:50.497Z,7.40
2019-03-30T17:10:17.256Z,4.87
2019-03-30T17:12:45.199Z,5.95
2019-03-30T17:15:11.818Z,8.95
2019-03-30T17:17:38.487Z,7.62
2019-03-30T17:20:08.610Z,5.25
2019-03-30T17:22:35.576Z,5.53
2019-03-30T17:25:02.233Z,6.80
2019-03-30T17:27:28.883Z,12.25
2019-03-30T17:29:55.442Z,13.15
2019-03-30T17:32:22.102Z,6.28
2019-03-30T17:34:48.677Z,6.20
2019-03-30T17:37:15.438Z,9.43
2019-03-30T17:39:41.991Z,21.60
2019-03-30T17:42:08.543Z,7.00
2019-03-30T17:44:35.204Z,7.75
2019-03-30T17:47:01.763Z,8.23
2019-03-30T17:49:28.432Z,14.07
2019-03-30T17:51:55.164Z,6.35
2019-03-30T17:54:21.957Z,8.53
2019-03-30T17:56:48.709Z,7.35
2019-03-30T17:59:15.272Z,7.58
2019-03-30T18:01:41.944Z,7.95
2019-03-30T18:04:08.599Z,8.20
2019-03-30T18:06:35.258Z,7.80
2019-03-30T18:09:01.910Z,6.90
2019-03-30T18:11:28.473Z,10.05
2019-03-30T18:13:55.233Z,9.88
2019-03-30T18:16:22.534Z,10.80
2019-03-30T18:18:49.578Z,8.30
2019-03-30T18:21:16.243Z,6.80
2019-03-30T18:23:42.894Z,10.05
2019-03-30T18:26:09.463Z,5.92
2019-03-30T18:28:36.117Z,7.55
2019-03-30T18:31:02.673Z,14.43
2019-03-30T18:33:29.343Z,8.23
2019-03-30T18:35:55.948Z,8.05
2019-03-30T18:38:22.562Z,8.20
2019-03-30T18:40:49.316Z,8.63
2019-03-30T18:43:16.082Z,8.10
2019-03-30T18:45:42.733Z,8.18
2019-03-30T18:48:09.506Z,13.98
2019-03-30T18:50:36.168Z,8.78
2019-03-30T18:53:02.830Z,8.98
2019-03-30T18:55:29.589Z,13.05
2019-03-30T18:57:56.341Z,11.83
2019-03-30T19:00:23.002Z,11.90
2019-03-30T19:02:49.769Z,13.13
2019-03-30T19:05:16.330Z,13.98
2019-03-30T19:07:42.991Z,16.42
2019-03-30T19:10:09.657Z,11.93
2019-03-30T19:12:36.317Z,18.67
2019-03-30T19:15:02.962Z,16.23
2019-03-30T19:17:29.532Z,17.02
2019-03-30T19:19:56.111Z,18.30
2019-03-30T19:22:22.617Z,20.00
2019-03-30T19:24:49.538Z,18.25
2019-03-30T19:27:16.066Z,18.70
2019-03-30T19:29:42.625Z,14.30
2019-03-30T19:32:09.277Z,15.08
2019-03-30T19:34:35.837Z,11.60
2019-03-30T19:37:02.494Z,11.78
2019-03-30T19:39:30.380Z,14.78
2019-03-30T19:41:57.142Z,22.45
2019-03-30T19:44:23.812Z,15.13
2019-03-30T19:46:50.472Z,13.50
2019-03-30T19:49:17.233Z,17.00
2019-03-30T19:51:44.704Z,12.75
2019-03-30T19:54:11.282Z,14.58
2019-03-30T19:56:38.038Z,14.87
2019-03-30T19:59:10.659Z,20.70
2019-03-30T20:01:33.099Z,13.90
2019-03-30T20:03:59.656Z,15.58
2019-03-30T20:06:26.322Z,15.50
2019-03-30T20:08:52.970Z,14.90
2019-03-30T20:11:19.631Z,14.23
2019-03-30T20:13:46.196Z,16.20
2019-03-30T20:16:13.153Z,17.27
2019-03-30T20:18:39.817Z,15.83
2019-03-30T20:21:06.997Z,21.77
2019-03-30T20:23:34.680Z,18.42
2019-03-30T20:26:01.447Z,19.05
2019-03-30T20:28:28.932Z,14.93
2019-03-30T20:30:55.771Z,20.70
2019-03-30T20:33:23.671Z,18.45
2019-03-30T20:35:50.231Z,17.73
2019-03-30T20:38:16.889Z,14.58
2019-03-30T20:40:43.430Z,16.00
2019-03-30T20:43:10.011Z,16.05
2019-03-30T20:45:36.755Z,12.73
2019-03-30T20:48:03.320Z,13.75
2019-03-30T20:50:29.879Z,14.47
2019-03-30T20:52:56.421Z,17.95
2019-03-30T20:55:23.006Z,14.20
2019-03-30T20:57:49.659Z,13.70
2019-03-30T21:00:16.320Z,17.75
2019-03-30T21:02:42.983Z,15.43
2019-03-30T21:05:09.738Z,12.80
2019-03-30T21:07:36.298Z,11.93
2019-03-30T21:10:02.951Z,14.10
2019-03-30T21:12:29.523Z,18.45
2019-03-30T21:14:56.181Z,13.05
2019-03-30T21:17:22.841Z,13.70
2019-03-30T21:19:49.504Z,12.58
2019-03-30T21:22:16.161Z,10.70
2019-03-30T21:24:42.820Z,12.55
2019-03-30T21:27:09.482Z,11.30
2019-03-30T21:29:36.138Z,13.30
2019-03-30T21:32:02.896Z,15.70
2019-03-30T21:34:29.570Z,21.75
2019-03-30T21:36:56.218Z,14.03
2019-03-30T21:39:22.781Z,15.10
2019-03-30T21:41:49.437Z,12.60
2019-03-30T21:44:22.197Z,14.30
2019-03-30T21:46:44.705Z,14.43
2019-03-30T21:49:11.255Z,12.80
2019-03-30T21:51:38.127Z,12.50
2019-03-30T21:54:04.879Z,12.68
2019-03-30T21:56:31.443Z,15.32
2019-03-30T21:58:58.102Z,12.45
2019-03-30T22:01:24.875Z,13.65
2019-03-30T22:03:51.628Z,14.15
2019-03-30T22:06:18.392Z,18.35
2019-03-30T22:08:44.953Z,11.93
2019-03-30T22:11:11.616Z,12.73
2019-03-30T22:13:38.375Z,11.40
2019-03-30T22:16:04.930Z,10.15
2019-03-30T22:18:31.596Z,8.70
2019-03-30T22:20:58.270Z,8.70
2019-03-30T22:23:25.011Z,13.53
2019-03-30T22:25:51.669Z,8.30
2019-03-30T22:28:18.332Z,9.70
2019-03-30T22:30:44.892Z,11.83
2019-03-30T22:33:11.550Z,9.00
2019-03-30T22:35:39.023Z,8.25
2019-03-30T22:38:05.901Z,9.90
2019-03-30T22:40:32.456Z,11.18
2019-03-30T22:42:59.022Z,12.73
2019-03-30T22:45:25.777Z,9.08
2019-03-30T22:47:52.427Z,9.18
2019-03-30T22:50:18.996Z,8.78
2019-03-30T22:52:45.560Z,9.65
2019-03-30T22:55:12.316Z,11.53
2019-03-30T22:57:38.891Z,8.70
2019-03-30T23:00:05.531Z,10.43
2019-03-30T23:02:31.990Z,10.00
2019-03-30T23:04:58.510Z,10.82
2019-03-30T23:07:24.970Z,8.03
2019-03-30T23:09:51.669Z,12.13
2019-03-30T23:12:18.326Z,10.32
2019-03-30T23:14:45.093Z,9.83
2019-03-30T23:17:11.853Z,9.13
2019-03-30T23:19:38.407Z,12.45
2019-03-30T23:22:05.265Z,8.23
2019-03-30T23:24:32.037Z,13.58
2019-03-30T23:26:59.716Z,8.85
2019-03-30T23:29:26.283Z,10.40
2019-03-30T23:31:52.836Z,11.55
2019-03-30T23:34:19.389Z,8.08
2019-03-30T23:36:46.052Z,9.25
2019-03-30T23:39:12.709Z,12.28
2019-03-30T23:41:39.367Z,8.95
2019-03-30T23:44:06.131Z,8.08
2019-03-30T23:46:32.904Z,9.68
2019-03-30T23:48:59.666Z,9.98
2019-03-30T23:51:26.929Z,10.58
2019-03-30T23:53:53.486Z,10.28
2019-03-30T23:56:20.157Z,13.22
2019-03-30T23:58:46.815Z,9.75
